createdAt,value
2023-03-29T00:00:21.853Z,3.29
2023-03-29T00:01:35.810Z,3.33
2023-03-29T00:02:38.221Z,3.30
2023-03-29T00:03:40.481Z,3.31
2023-03-29T00:04:42.739Z,3.30
2023-03-29T00:05:44.922Z,3.24
2023-03-29T00:06:48.211Z,3.15
2023-03-29T00:07:54.371Z,3.30
2023-03-29T00:08:56.333Z,3.26
2023-03-29T00:09:58.118Z,3.25
2023-03-29T00:11:02.207Z,3.27
2023-03-29T00:12:04.277Z,3.30
2023-03-29T00:13:06.263Z,3.23
2023-03-29T00:14:08.350Z,3.14
2023-03-29T00:15:10.359Z,3.23
2023-03-29T00:16:13.136Z,3.25
2023-03-29T00:17:14.874Z,3.22
2023-03-29T00:18:16.599Z,3.20
2023-03-29T00:19:18.791Z,3.26
2023-03-29T00:20:20.844Z,3.26
2023-03-29T00:21:22.612Z,3.23
2023-03-29T00:22:25.011Z,3.20
2023-03-29T00:23:26.826Z,3.10
2023-03-29T00:24:28.524Z,3.15
2023-03-29T00:25:30.479Z,3.15
2023-03-29T00:26:32.232Z,3.16
2023-03-29T00:27:34.291Z,3.14
2023-03-29T00:28:36.185Z,3.14
2023-03-29T00:29:37.947Z,3.09
2023-03-29T00:30:39.651Z,3.06
2023-03-29T00:31:41.500Z,3.14
2023-03-29T00:32:43.685Z,3.16
2023-03-29T00:33:45.945Z,3.12
2023-03-29T00:34:50.949Z,3.10
2023-03-29T00:35:53.486Z,3.10
2023-03-29T00:36:57.973Z,3.14
2023-03-29T00:37:59.762Z,3.15
2023-03-29T00:39:01.479Z,3.11
2023-03-29T00:40:08.614Z,3.08
2023-03-29T00:41:10.705Z,3.10
2023-03-29T00:42:17.349Z,3.05
2023-03-29T00:43:19.168Z,3.01
2023-03-29T00:44:54.681Z,3.06
2023-03-29T00:45:56.498Z,3.07
2023-03-29T00:46:58.264Z,3.07
2023-03-29T00:48:04.706Z,3.08
2023-03-29T00:49:12.910Z,3.10
2023-03-29T00:50:29.871Z,3.01
2023-03-29T00:51:35.841Z,3.01
2023-03-29T00:52:39.727Z,3.04
2023-03-29T00:54:02.478Z,3.02
2023-03-29T00:55:10.722Z,3.04
2023-03-29T00:56:18.217Z,2.98
2023-03-29T00:57:22.752Z,2.99
2023-03-29T00:58:49.538Z,2.97
2023-03-29T00:59:52.949Z,3.00
2023-03-29T01:01:02.436Z,3.00
2023-03-29T01:02:07.334Z,3.02
2023-03-29T01:03:25.136Z,2.99
2023-03-29T01:04:47.703Z,2.99
2023-03-29T01:05:53.703Z,2.96
2023-03-29T01:07:21.517Z,2.98
2023-03-29T01:08:29.760Z,2.97
2023-03-29T01:09:35.624Z,2.97
2023-03-29T01:10:43.461Z,2.98
2023-03-29T01:11:53.475Z,2.96
2023-03-29T01:13:01.623Z,3.00
2023-03-29T01:14:05.656Z,2.98
2023-03-29T01:15:17.608Z,2.96
2023-03-29T01:16:22.156Z,2.98
2023-03-29T01:17:25.623Z,2.99
2023-03-29T01:18:27.466Z,3.02
2023-03-29T01:19:34.592Z,2.99
2023-03-29T01:21:06.680Z,3.05
2023-03-29T01:22:30.261Z,3.04
2023-03-29T01:24:07.234Z,3.05
2023-03-29T01:25:41.441Z,3.00
2023-03-29T01:26:49.241Z,2.90
2023-03-29T01:27:56.138Z,3.03
2023-03-29T01:29:03.512Z,3.00
2023-03-29T01:30:13.110Z,3.01
2023-03-29T01:31:24.541Z,2.98
2023-03-29T01:32:39.039Z,2.98
2023-03-29T01:33:44.672Z,2.95
2023-03-29T01:34:56.907Z,2.91
2023-03-29T01:36:11.817Z,2.85
2023-03-29T01:37:26.649Z,2.81
2023-03-29T01:38:35.024Z,2.82
2023-03-29T01:39:36.860Z,2.83
2023-03-29T01:40:38.594Z,2.86
2023-03-29T01:41:43.311Z,2.85
2023-03-29T01:43:03.450Z,2.85
2023-03-29T01:44:11.694Z,2.85
2023-03-29T01:45:22.340Z,2.85
2023-03-29T01:46:32.997Z,2.89
2023-03-29T01:47:40.961Z,2.79
2023-03-29T01:48:54.897Z,2.84
2023-03-29T01:50:38.083Z,2.82
2023-03-29T01:51:48.708Z,2.86
2023-03-29T01:53:08.085Z,2.86
2023-03-29T01:54:16.388Z,2.75
2023-03-29T01:55:27.400Z,2.80
2023-03-29T01:56:34.222Z,2.78
2023-03-29T01:57:38.955Z,2.76
2023-03-29T01:58:45.238Z,2.76
2023-03-29T01:59:48.984Z,2.77
2023-03-29T02:00:55.365Z,2.79
2023-03-29T02:02:00.814Z,2.69
2023-03-29T02:03:08.903Z,2.74
2023-03-29T02:04:13.821Z,2.64
2023-03-29T02:05:17.104Z,2.67
2023-03-29T02:06:21.419Z,2.64
2023-03-29T02:07:27.035Z,2.75
2023-03-29T02:08:29.955Z,2.74
2023-03-29T02:09:34.116Z,2.61
2023-03-29T02:10:37.027Z,2.73
2023-03-29T02:11:41.424Z,2.76
2023-03-29T02:12:43.523Z,2.72
2023-03-29T02:13:45.382Z,2.70
2023-03-29T02:14:47.177Z,2.62
2023-03-29T02:15:49.242Z,2.60
2023-03-29T02:16:51.451Z,2.66
2023-03-29T02:17:53.573Z,2.61
2023-03-29T02:18:57.073Z,2.64
2023-03-29T02:20:14.005Z,2.64
2023-03-29T02:21:39.458Z,2.63
2023-03-29T02:22:47.956Z,2.61
2023-03-29T02:23:51.000Z,2.58
2023-03-29T02:24:59.299Z,2.60
2023-03-29T02:26:04.005Z,2.50
2023-03-29T02:27:06.225Z,2.61
2023-03-29T02:28:08.001Z,2.60
2023-03-29T02:29:10.450Z,2.53
2023-03-29T02:30:14.645Z,2.60
2023-03-29T02:31:19.203Z,2.53
2023-03-29T02:32:25.255Z,2.46
2023-03-29T02:33:33.569Z,2.55
2023-03-29T02:34:42.188Z,2.55
2023-03-29T02:35:59.245Z,2.57
2023-03-29T02:37:06.891Z,2.44
2023-03-29T02:38:11.493Z,2.57
2023-03-29T02:39:15.579Z,2.58
2023-03-29T02:40:18.257Z,2.50
2023-03-29T02:41:22.106Z,2.51
2023-03-29T02:42:25.678Z,2.57
2023-03-29T02:43:29.667Z,2.57
2023-03-29T02:44:35.082Z,2.53
2023-03-29T02:45:39.401Z,2.53
2023-03-29T02:46:43.152Z,2.47
2023-03-29T02:47:51.727Z,2.53
2023-03-29T02:48:55.824Z,2.53
2023-03-29T02:49:58.849Z,2.43
2023-03-29T02:51:04.044Z,2.47
2023-03-29T02:52:11.095Z,2.46
2023-03-29T02:53:20.098Z,2.37
2023-03-29T02:54:25.966Z,2.43
2023-03-29T02:55:34.858Z,2.40
2023-03-29T02:56:43.503Z,2.49
2023-03-29T02:57:45.650Z,2.50
2023-03-29T02:58:47.395Z,2.50
2023-03-29T02:59:49.636Z,2.47
2023-03-29T03:00:51.433Z,2.48
2023-03-29T03:01:53.695Z,2.39
2023-03-29T03:02:55.668Z,2.56
2023-03-29T03:03:57.879Z,2.46
2023-03-29T03:04:59.698Z,2.47
2023-03-29T03:06:01.855Z,2.43
2023-03-29T03:07:06.799Z,2.50
2023-03-29T03:08:08.761Z,2.36
2023-03-29T03:09:10.904Z,2.31
2023-03-29T03:10:12.763Z,2.41
2023-03-29T03:11:15.380Z,2.10
2023-03-29T03:12:17.152Z,2.44
2023-03-29T03:13:19.021Z,2.37
2023-03-29T03:14:22.980Z,2.42
2023-03-29T03:15:26.473Z,2.38
2023-03-29T03:16:28.219Z,2.43
2023-03-29T03:17:30.373Z,2.40
2023-03-29T03:18:32.751Z,2.34
2023-03-29T03:19:34.476Z,2.41
2023-03-29T03:20:36.654Z,2.39
2023-03-29T03:21:38.472Z,2.44
2023-03-29T03:22:42.795Z,2.43
2023-03-29T03:23:48.669Z,2.42
2023-03-29T03:24:50.625Z,2.44
2023-03-29T03:25:52.995Z,2.34
2023-03-29T03:26:54.741Z,2.36
2023-03-29T03:27:56.523Z,2.35
2023-03-29T03:28:58.390Z,2.37
2023-03-29T03:30:00.205Z,2.32
2023-03-29T03:31:02.095Z,2.32
2023-03-29T03:32:04.421Z,2.35
2023-03-29T03:33:06.461Z,2.32
2023-03-29T03:34:11.449Z,2.29
2023-03-29T03:35:13.333Z,2.38
2023-03-29T03:36:15.096Z,2.39
2023-03-29T03:37:16.847Z,2.38
2023-03-29T03:38:18.546Z,2.37
2023-03-29T03:39:20.297Z,2.37
2023-03-29T03:40:22.182Z,2.41
2023-03-29T03:41:23.934Z,2.08
2023-03-29T03:42:28.841Z,2.33
2023-03-29T03:43:30.690Z,2.23
2023-03-29T03:44:32.436Z,2.34
2023-03-29T03:45:34.390Z,2.30
2023-03-29T03:46:36.154Z,2.29
2023-03-29T03:47:38.260Z,2.26
2023-03-29T03:48:40.060Z,2.27
2023-03-29T03:49:42.284Z,2.30
2023-03-29T03:50:58.472Z,2.29
2023-03-29T03:52:00.200Z,2.22
2023-03-29T03:53:01.908Z,2.16
2023-03-29T03:54:03.683Z,2.19
2023-03-29T03:55:05.728Z,2.24
2023-03-29T03:56:10.609Z,2.23
2023-03-29T03:57:12.686Z,2.27
2023-03-29T03:58:14.428Z,2.22
2023-03-29T03:59:16.284Z,2.21
2023-03-29T04:00:21.408Z,2.25
2023-03-29T04:01:24.116Z,2.14
2023-03-29T04:02:26.803Z,2.19
2023-03-29T04:03:29.308Z,2.22
2023-03-29T04:04:31.523Z,2.18
2023-03-29T04:05:34.012Z,2.19
2023-03-29T04:06:35.826Z,2.15
2023-03-29T04:07:37.692Z,2.16
2023-03-29T04:08:39.619Z,2.15
2023-03-29T04:09:41.312Z,2.15
2023-03-29T04:10:43.117Z,2.15
2023-03-29T04:11:44.810Z,2.14
2023-03-29T04:12:46.642Z,2.12
2023-03-29T04:13:48.449Z,2.10
2023-03-29T04:14:50.146Z,2.19
2023-03-29T04:15:54.421Z,2.10
2023-03-29T04:16:56.242Z,2.19
2023-03-29T04:17:59.047Z,2.19
2023-03-29T04:19:01.447Z,2.12
2023-03-29T04:20:10.357Z,2.15
2023-03-29T04:21:12.099Z,2.13
2023-03-29T04:22:13.836Z,2.14
2023-03-29T04:23:16.546Z,2.13
2023-03-29T04:24:18.354Z,2.17
2023-03-29T04:25:21.660Z,2.21
2023-03-29T04:26:23.418Z,2.25
2023-03-29T04:27:25.138Z,2.21
2023-03-29T04:28:26.962Z,2.16
2023-03-29T04:29:28.912Z,2.18
2023-03-29T04:30:30.813Z,2.29
2023-03-29T04:31:32.685Z,2.32
2023-03-29T04:32:35.273Z,2.45
2023-03-29T04:33:36.978Z,2.51
2023-03-29T04:34:38.711Z,2.60
2023-03-29T04:35:40.552Z,2.68
2023-03-29T04:36:43.748Z,2.78
2023-03-29T04:37:45.510Z,2.87
2023-03-29T04:38:48.085Z,2.90
2023-03-29T04:39:50.405Z,3.02
2023-03-29T04:40:52.334Z,3.07
2023-03-29T04:41:54.059Z,3.12
2023-03-29T04:42:55.905Z,3.15
2023-03-29T04:43:57.659Z,3.23
2023-03-29T04:45:00.594Z,3.34
2023-03-29T04:46:03.564Z,3.42
2023-03-29T04:47:05.322Z,3.51
2023-03-29T04:48:07.295Z,3.60
2023-03-29T04:49:09.040Z,3.68
2023-03-29T04:50:11.736Z,3.80
2023-03-29T04:51:13.616Z,3.88
2023-03-29T04:52:15.429Z,3.96
2023-03-29T04:53:17.238Z,3.99
2023-03-29T04:54:19.077Z,3.94
2023-03-29T04:55:20.929Z,4.09
2023-03-29T04:56:23.286Z,4.08
2023-03-29T04:57:25.542Z,4.18
2023-03-29T04:58:32.015Z,4.23
2023-03-29T04:59:34.680Z,4.29
2023-03-29T05:00:37.009Z,4.35
2023-03-29T05:01:39.693Z,4.29
2023-03-29T05:02:45.448Z,4.36
2023-03-29T05:03:47.256Z,4.44
2023-03-29T05:04:49.277Z,4.39
2023-03-29T05:05:51.249Z,4.49
2023-03-29T05:06:53.037Z,4.55
2023-03-29T05:07:55.469Z,4.63
2023-03-29T05:08:57.287Z,4.65
2023-03-29T05:09:59.663Z,4.81
2023-03-29T05:11:02.141Z,4.87
2023-03-29T05:12:04.264Z,4.96
2023-03-29T05:13:06.794Z,4.94
2023-03-29T05:14:09.452Z,4.97
2023-03-29T05:15:11.466Z,5.00
2023-03-29T05:16:13.243Z,5.23
2023-03-29T05:17:14.978Z,5.34
2023-03-29T05:18:16.652Z,5.42
2023-03-29T05:19:21.823Z,5.32
2023-03-29T05:20:25.014Z,5.32
2023-03-29T05:21:28.427Z,5.33
2023-03-29T05:22:30.135Z,5.50
2023-03-29T05:23:31.884Z,5.66
2023-03-29T05:24:33.602Z,5.71
2023-03-29T05:25:35.456Z,5.99
2023-03-29T05:26:40.146Z,6.15
2023-03-29T05:27:42.741Z,6.08
2023-03-29T05:28:44.599Z,5.90
2023-03-29T05:29:46.675Z,6.02
2023-03-29T05:31:00.063Z,6.10
2023-03-29T05:32:02.213Z,6.01
2023-03-29T05:33:05.804Z,5.94
2023-03-29T05:34:07.627Z,5.93
2023-03-29T05:35:10.845Z,6.17
2023-03-29T05:36:14.777Z,6.18
2023-03-29T05:37:17.280Z,6.22
2023-03-29T05:38:19.006Z,6.16
2023-03-29T05:39:21.220Z,6.14
2023-03-29T05:40:26.305Z,6.23
2023-03-29T05:41:28.338Z,6.27
2023-03-29T05:42:30.045Z,6.19
2023-03-29T05:43:32.088Z,6.41
2023-03-29T05:44:33.850Z,6.51
2023-03-29T05:45:35.556Z,6.60
2023-03-29T05:46:37.380Z,6.60
2023-03-29T05:47:39.213Z,6.69
2023-03-29T05:48:41.711Z,6.88
2023-03-29T05:49:44.767Z,6.79
2023-03-29T05:50:48.627Z,6.90
2023-03-29T05:51:52.109Z,6.89
2023-03-29T05:52:53.808Z,6.95
2023-03-29T05:53:55.495Z,7.01
2023-03-29T05:54:57.492Z,6.86
2023-03-29T05:55:59.302Z,6.80
2023-03-29T05:57:01.338Z,6.76
2023-03-29T05:58:03.940Z,6.70
2023-03-29T05:59:05.683Z,6.69
2023-03-29T06:00:26.870Z,6.76
2023-03-29T06:01:28.887Z,7.19
2023-03-29T06:02:30.751Z,7.21
2023-03-29T06:03:32.692Z,6.99
2023-03-29T06:04:36.003Z,6.93
2023-03-29T06:05:37.794Z,7.02
2023-03-29T06:06:40.730Z,7.12
2023-03-29T06:07:43.723Z,7.16
2023-03-29T06:08:46.244Z,7.17
2023-03-29T06:09:47.990Z,7.26
2023-03-29T06:10:49.935Z,7.43
2023-03-29T06:11:52.344Z,7.68
2023-03-29T06:12:54.071Z,7.96
2023-03-29T06:13:55.917Z,8.18
2023-03-29T06:15:03.165Z,8.30
2023-03-29T06:16:06.126Z,8.25
2023-03-29T06:17:07.866Z,8.03
2023-03-29T06:18:09.978Z,7.77
2023-03-29T06:19:11.849Z,7.74
2023-03-29T06:20:14.428Z,7.65
2023-03-29T06:21:16.952Z,7.49
2023-03-29T06:22:18.717Z,7.44
2023-03-29T06:23:21.451Z,7.53
2023-03-29T06:24:25.089Z,7.43
2023-03-29T06:25:26.970Z,7.53
2023-03-29T06:26:28.658Z,7.62
2023-03-29T06:27:30.369Z,7.51
2023-03-29T06:28:32.225Z,7.65
2023-03-29T06:29:33.961Z,7.65
2023-03-29T06:30:35.703Z,7.53
2023-03-29T06:31:37.620Z,7.51
2023-03-29T06:32:39.890Z,7.42
2023-03-29T06:33:43.284Z,7.53
2023-03-29T06:34:44.988Z,7.47
2023-03-29T06:35:48.331Z,7.59
2023-03-29T06:36:51.189Z,7.56
2023-03-29T06:37:53.850Z,7.57
2023-03-29T06:38:55.567Z,7.68
2023-03-29T06:39:58.123Z,7.86
2023-03-29T06:41:08.000Z,7.98
2023-03-29T06:42:20.056Z,8.11
2023-03-29T06:43:22.854Z,8.08
2023-03-29T06:44:25.680Z,8.10
2023-03-29T06:45:29.484Z,8.24
2023-03-29T06:46:31.819Z,8.27
2023-03-29T06:47:33.673Z,8.16
2023-03-29T06:48:35.485Z,8.45
2023-03-29T06:49:37.176Z,8.41
2023-03-29T06:50:38.946Z,8.41
2023-03-29T06:51:40.738Z,8.41
2023-03-29T06:52:42.436Z,8.48
2023-03-29T06:53:44.130Z,8.34
2023-03-29T06:54:46.594Z,8.48
2023-03-29T06:55:49.593Z,8.44
2023-03-29T06:56:51.622Z,8.40
2023-03-29T06:57:54.420Z,8.45
2023-03-29T06:58:56.887Z,8.52
2023-03-29T06:59:58.560Z,8.64
2023-03-29T07:01:02.666Z,8.86
2023-03-29T07:02:04.617Z,8.86
2023-03-29T07:03:09.933Z,8.96
2023-03-29T07:04:11.886Z,8.76
2023-03-29T07:05:14.766Z,8.88
2023-03-29T07:06:18.076Z,9.05
2023-03-29T07:07:20.680Z,9.11
2023-03-29T07:08:22.617Z,9.06
2023-03-29T07:09:26.272Z,9.14
2023-03-29T07:10:32.939Z,9.39
2023-03-29T07:11:35.996Z,9.49
2023-03-29T07:12:38.361Z,9.25
2023-03-29T07:13:43.709Z,9.42
2023-03-29T07:14:46.743Z,9.54
2023-03-29T07:15:48.570Z,9.65
2023-03-29T07:16:52.091Z,9.85
2023-03-29T07:17:54.507Z,9.95
2023-03-29T07:18:56.730Z,9.67
2023-03-29T07:19:58.491Z,9.81
2023-03-29T07:21:00.701Z,9.67
2023-03-29T07:22:02.770Z,9.46
2023-03-29T07:23:05.483Z,9.41
2023-03-29T07:24:07.388Z,9.68
2023-03-29T07:25:10.785Z,9.78
2023-03-29T07:26:12.669Z,9.95
2023-03-29T07:27:14.801Z,10.02
2023-03-29T07:28:16.768Z,9.94
2023-03-29T07:29:18.606Z,9.92
2023-03-29T07:30:23.733Z,9.90
2023-03-29T07:31:25.523Z,9.79
2023-03-29T07:32:28.296Z,9.88
2023-03-29T07:33:30.653Z,9.65
2023-03-29T07:34:32.844Z,9.67
2023-03-29T07:35:34.610Z,9.77
2023-03-29T07:36:38.644Z,10.03
2023-03-29T07:37:42.859Z,9.98
2023-03-29T07:38:44.854Z,9.89
2023-03-29T07:39:47.821Z,9.82
2023-03-29T07:40:49.569Z,9.94
2023-03-29T07:41:51.692Z,10.03
2023-03-29T07:42:55.362Z,9.94
2023-03-29T07:43:57.164Z,10.07
2023-03-29T07:44:58.884Z,10.07
2023-03-29T07:46:05.379Z,9.99
2023-03-29T07:47:07.187Z,9.82
2023-03-29T07:48:09.153Z,9.92
2023-03-29T07:49:10.969Z,10.08
2023-03-29T07:50:13.615Z,10.33
2023-03-29T07:51:16.643Z,10.47
2023-03-29T07:52:18.355Z,10.67
2023-03-29T07:53:20.094Z,10.88
2023-03-29T07:54:21.877Z,11.02
2023-03-29T07:55:24.772Z,11.22
2023-03-29T07:56:26.640Z,11.08
2023-03-29T07:57:28.380Z,11.04
2023-03-29T07:58:30.415Z,10.91
2023-03-29T07:59:32.219Z,10.66
2023-03-29T08:00:34.274Z,10.76
2023-03-29T08:01:36.016Z,10.73
2023-03-29T08:02:38.158Z,10.31
2023-03-29T08:03:39.909Z,10.31
2023-03-29T08:04:42.201Z,10.32
2023-03-29T08:05:44.038Z,10.33
2023-03-29T08:06:45.851Z,10.59
2023-03-29T08:07:48.039Z,10.74
2023-03-29T08:08:49.884Z,10.87
2023-03-29T08:09:51.611Z,10.79
2023-03-29T08:10:53.781Z,10.74
2023-03-29T08:11:55.515Z,10.73
2023-03-29T08:12:58.284Z,10.70
2023-03-29T08:14:00.173Z,10.64
2023-03-29T08:15:02.307Z,10.80
2023-03-29T08:16:05.895Z,10.77
2023-03-29T08:17:07.693Z,10.78
2023-03-29T08:18:09.581Z,10.63
2023-03-29T08:19:11.377Z,10.60
2023-03-29T08:20:16.241Z,10.71
2023-03-29T08:21:17.980Z,10.80
2023-03-29T08:22:19.907Z,10.83
2023-03-29T08:23:21.625Z,11.11
2023-03-29T08:24:23.344Z,11.09
2023-03-29T08:25:25.172Z,11.03
2023-03-29T08:26:26.984Z,11.10
2023-03-29T08:27:29.166Z,10.81
2023-03-29T08:28:30.915Z,11.01
2023-03-29T08:29:32.625Z,11.03
2023-03-29T08:30:34.602Z,11.09
2023-03-29T08:31:36.849Z,11.16
2023-03-29T08:32:39.421Z,11.20
2023-03-29T08:33:44.193Z,11.40
2023-03-29T08:34:46.993Z,10.98
2023-03-29T08:35:49.479Z,10.80
2023-03-29T08:36:52.716Z,10.79
2023-03-29T08:37:54.682Z,10.90
2023-03-29T08:38:56.444Z,10.89
2023-03-29T08:39:58.699Z,10.94
2023-03-29T08:41:00.713Z,10.99
2023-03-29T08:42:09.017Z,10.91
2023-03-29T08:43:31.742Z,11.10
2023-03-29T08:45:15.035Z,11.47
2023-03-29T08:46:35.306Z,11.60
2023-03-29T08:47:50.565Z,11.63
2023-03-29T08:49:03.889Z,11.84
2023-03-29T08:50:06.855Z,12.17
2023-03-29T08:51:24.654Z,12.03
2023-03-29T08:52:39.290Z,12.11
2023-03-29T08:53:49.121Z,12.15
2023-03-29T08:54:56.116Z,12.34
2023-03-29T08:56:00.477Z,12.52
2023-03-29T08:57:12.355Z,12.83
2023-03-29T08:58:29.120Z,12.68
2023-03-29T08:59:33.306Z,12.72
2023-03-29T09:00:57.507Z,12.66
2023-03-29T09:02:02.625Z,12.44
2023-03-29T09:03:13.666Z,12.47
2023-03-29T09:04:42.676Z,12.40
2023-03-29T09:05:51.524Z,12.67
2023-03-29T09:06:54.401Z,12.32
2023-03-29T09:07:56.237Z,12.20
2023-03-29T09:08:58.237Z,12.38
2023-03-29T09:10:00.587Z,12.44
2023-03-29T09:11:12.646Z,12.75
2023-03-29T09:12:14.312Z,12.86
2023-03-29T09:13:19.672Z,12.99
2023-03-29T09:14:27.605Z,13.08
2023-03-29T09:15:54.230Z,13.09
2023-03-29T09:17:03.960Z,13.04
2023-03-29T09:18:30.485Z,12.98
2023-03-29T09:19:42.078Z,13.09
2023-03-29T09:21:16.705Z,13.17
2023-03-29T09:22:41.608Z,13.16
2023-03-29T09:24:25.317Z,13.13
2023-03-29T09:25:50.883Z,13.54
2023-03-29T09:27:05.375Z,13.81
2023-03-29T09:29:02.908Z,14.24
2023-03-29T09:30:28.703Z,14.12
2023-03-29T09:31:39.341Z,13.75
2023-03-29T09:32:54.512Z,13.35
2023-03-29T09:34:07.205Z,13.15
2023-03-29T09:35:27.739Z,12.62
2023-03-29T09:36:36.416Z,12.17
2023-03-29T09:37:40.005Z,11.76
2023-03-29T09:38:44.528Z,11.68
2023-03-29T09:39:46.332Z,11.85
2023-03-29T09:40:53.963Z,12.16
2023-03-29T09:42:05.886Z,12.63
2023-03-29T09:43:14.320Z,13.00
2023-03-29T09:44:30.956Z,13.20
2023-03-29T09:45:38.584Z,13.36
2023-03-29T09:47:08.072Z,13.35
2023-03-29T09:48:15.413Z,13.34
2023-03-29T09:49:34.200Z,13.24
2023-03-29T09:50:42.426Z,13.15
2023-03-29T09:51:48.146Z,13.43
2023-03-29T09:52:50.717Z,13.83
2023-03-29T09:53:52.811Z,13.80
2023-03-29T09:54:54.673Z,13.66
2023-03-29T09:55:57.005Z,13.75
2023-03-29T09:56:59.764Z,13.87
2023-03-29T09:58:03.287Z,13.83
2023-03-29T09:59:05.754Z,13.96
2023-03-29T10:00:10.802Z,14.05
2023-03-29T10:01:17.576Z,13.96
2023-03-29T10:02:21.301Z,13.76
2023-03-29T10:03:26.049Z,13.73
2023-03-29T10:04:27.946Z,13.90
2023-03-29T10:05:33.204Z,14.22
2023-03-29T10:06:35.669Z,14.45
2023-03-29T10:07:44.775Z,14.66
2023-03-29T10:08:51.883Z,14.59
2023-03-29T10:09:56.121Z,14.48
2023-03-29T10:10:59.939Z,14.49
2023-03-29T10:12:06.836Z,14.56
2023-03-29T10:13:16.730Z,14.76
2023-03-29T10:14:22.518Z,14.81
2023-03-29T10:15:30.344Z,14.37
2023-03-29T10:16:46.361Z,14.40
2023-03-29T10:17:48.742Z,14.39
2023-03-29T10:18:50.768Z,14.50
2023-03-29T10:19:58.233Z,14.59
2023-03-29T10:21:02.901Z,14.65
2023-03-29T10:22:08.079Z,14.45
2023-03-29T10:23:18.992Z,14.47
2023-03-29T10:24:25.986Z,14.63
2023-03-29T10:25:35.862Z,14.66
2023-03-29T10:26:39.157Z,14.58
2023-03-29T10:27:43.306Z,14.45
2023-03-29T10:28:45.307Z,14.68
2023-03-29T10:29:47.244Z,14.56
2023-03-29T10:30:57.607Z,14.58
2023-03-29T10:31:59.423Z,14.62
2023-03-29T10:33:01.749Z,14.69
2023-03-29T10:34:06.685Z,14.66
2023-03-29T10:35:33.469Z,14.73
2023-03-29T10:36:40.304Z,14.78
2023-03-29T10:37:43.796Z,14.76
2023-03-29T10:38:46.337Z,14.66
2023-03-29T10:39:49.170Z,14.39
2023-03-29T10:40:53.734Z,14.56
2023-03-29T10:41:56.285Z,14.53
2023-03-29T10:43:32.625Z,14.65
2023-03-29T10:44:37.822Z,14.34
2023-03-29T10:45:41.108Z,14.57
2023-03-29T10:46:44.216Z,14.52
2023-03-29T10:47:48.682Z,14.67
2023-03-29T10:48:55.677Z,14.92
2023-03-29T10:50:01.652Z,15.22
2023-03-29T10:51:06.118Z,15.14
2023-03-29T10:52:09.528Z,15.18
2023-03-29T10:53:29.408Z,15.40
2023-03-29T10:54:31.479Z,15.48
2023-03-29T10:55:41.923Z,15.19
2023-03-29T10:56:47.847Z,15.16
2023-03-29T10:58:15.718Z,14.89
2023-03-29T10:59:17.373Z,14.96
2023-03-29T11:00:34.203Z,14.75
2023-03-29T11:02:00.127Z,14.57
2023-03-29T11:03:11.618Z,14.72
2023-03-29T11:04:48.710Z,14.81
2023-03-29T11:05:59.260Z,14.82
2023-03-29T11:07:31.590Z,14.73
2023-03-29T11:08:51.144Z,14.68
2023-03-29T11:10:13.906Z,14.84
2023-03-29T11:11:41.254Z,14.98
2023-03-29T11:13:12.305Z,15.05
2023-03-29T11:14:22.808Z,14.94
2023-03-29T11:15:38.936Z,14.72
2023-03-29T11:16:47.007Z,14.83
2023-03-29T11:18:00.743Z,14.89
2023-03-29T11:19:16.264Z,15.03
2023-03-29T11:20:41.064Z,15.11
2023-03-29T11:22:05.149Z,15.11
2023-03-29T11:23:22.383Z,15.03
2023-03-29T11:24:53.069Z,14.82
2023-03-29T11:26:00.836Z,14.59
2023-03-29T11:27:27.490Z,14.82
2023-03-29T11:28:39.046Z,14.84
2023-03-29T11:30:00.942Z,14.55
2023-03-29T11:31:11.876Z,14.67
2023-03-29T11:32:16.072Z,14.80
2023-03-29T11:33:34.056Z,14.75
2023-03-29T11:35:06.559Z,14.78
2023-03-29T11:36:42.353Z,14.83
2023-03-29T11:37:55.817Z,14.70
2023-03-29T11:39:16.555Z,14.57
2023-03-29T11:40:55.842Z,14.50
2023-03-29T11:42:08.284Z,14.33
2023-03-29T11:43:15.676Z,14.19
2023-03-29T11:44:33.700Z,14.18
2023-03-29T11:45:46.328Z,14.22
2023-03-29T11:46:58.747Z,14.35
2023-03-29T11:48:05.165Z,14.34
2023-03-29T11:49:42.512Z,14.22
2023-03-29T11:51:06.886Z,14.16
2023-03-29T11:52:25.697Z,14.20
2023-03-29T11:53:57.127Z,14.16
2023-03-29T11:55:04.689Z,13.96
2023-03-29T11:56:15.780Z,13.76
2023-03-29T11:57:29.288Z,13.87
2023-03-29T11:58:39.566Z,13.84
2023-03-29T11:59:56.897Z,13.59
2023-03-29T12:01:13.016Z,13.68
2023-03-29T12:02:35.664Z,13.83
2023-03-29T12:03:47.188Z,13.88
2023-03-29T12:04:54.053Z,13.81
2023-03-29T12:06:04.564Z,13.78
2023-03-29T12:07:28.113Z,13.84
2023-03-29T12:08:32.565Z,13.99
2023-03-29T12:09:36.977Z,13.90
2023-03-29T12:11:02.469Z,13.99
2023-03-29T12:12:45.491Z,14.05
2023-03-29T12:14:14.287Z,13.72
2023-03-29T12:15:26.424Z,13.60
2023-03-29T12:17:01.156Z,13.57
2023-03-29T12:18:14.229Z,13.48
2023-03-29T12:19:40.305Z,13.42
2023-03-29T12:20:48.638Z,13.47
2023-03-29T12:21:52.632Z,13.50
2023-03-29T12:22:55.131Z,13.61
2023-03-29T12:23:57.976Z,13.56
2023-03-29T12:25:01.664Z,13.64
2023-03-29T12:26:12.365Z,13.60
2023-03-29T12:27:23.404Z,13.67
2023-03-29T12:29:11.810Z,13.79
2023-03-29T12:30:21.853Z,13.73
2023-03-29T12:31:26.780Z,13.68
2023-03-29T12:32:37.871Z,13.57
2023-03-29T12:33:51.726Z,13.52
2023-03-29T12:35:25.118Z,13.64
2023-03-29T12:37:02.262Z,13.78
2023-03-29T12:38:25.204Z,13.81
2023-03-29T12:39:29.068Z,13.74
2023-03-29T12:40:41.994Z,13.56
2023-03-29T12:41:49.030Z,13.58
2023-03-29T12:43:02.462Z,13.49
2023-03-29T12:44:04.872Z,13.51
2023-03-29T12:45:15.118Z,13.54
2023-03-29T12:46:31.946Z,13.57
2023-03-29T12:47:43.315Z,13.71
2023-03-29T12:48:49.414Z,13.75
2023-03-29T12:49:59.703Z,13.73
2023-03-29T12:51:03.643Z,13.76
2023-03-29T12:52:28.749Z,13.80
2023-03-29T12:53:50.670Z,13.73
2023-03-29T12:54:58.077Z,13.61
2023-03-29T12:56:02.905Z,13.69
2023-03-29T12:57:41.898Z,13.65
2023-03-29T12:59:16.475Z,13.77
2023-03-29T13:00:26.758Z,13.90
2023-03-29T13:01:34.595Z,13.85
2023-03-29T13:02:37.720Z,13.87
2023-03-29T13:03:39.502Z,13.85
2023-03-29T13:04:43.987Z,13.80
2023-03-29T13:05:46.158Z,13.86
2023-03-29T13:06:56.332Z,13.92
2023-03-29T13:07:58.234Z,13.89
2023-03-29T13:09:03.469Z,14.04
2023-03-29T13:10:10.212Z,14.04
2023-03-29T13:11:25.681Z,14.12
2023-03-29T13:12:35.597Z,14.00
2023-03-29T13:13:40.442Z,13.99
2023-03-29T13:14:46.448Z,14.03
2023-03-29T13:15:50.692Z,13.98
2023-03-29T13:16:53.616Z,14.07
2023-03-29T13:18:13.308Z,14.14
2023-03-29T13:19:39.718Z,14.05
2023-03-29T13:20:52.376Z,14.13
2023-03-29T13:21:59.882Z,14.07
2023-03-29T13:23:17.729Z,14.01
2023-03-29T13:24:19.647Z,14.03
2023-03-29T13:25:27.396Z,13.98
2023-03-29T13:26:29.067Z,13.82
2023-03-29T13:27:58.289Z,13.78
2023-03-29T13:29:12.090Z,13.78
2023-03-29T13:30:41.064Z,13.64
2023-03-29T13:32:00.889Z,13.79
2023-03-29T13:33:21.271Z,13.87
2023-03-29T13:34:32.195Z,14.05
2023-03-29T13:35:40.431Z,14.01
2023-03-29T13:37:17.904Z,13.99
2023-03-29T13:38:23.169Z,14.03
2023-03-29T13:39:29.710Z,14.07
2023-03-29T13:40:40.489Z,14.01
2023-03-29T13:41:42.609Z,13.98
2023-03-29T13:42:56.433Z,14.00
2023-03-29T13:43:58.827Z,13.93
2023-03-29T13:45:25.341Z,13.85
2023-03-29T13:46:43.901Z,13.97
2023-03-29T13:47:58.836Z,13.90
2023-03-29T13:49:24.632Z,13.90
2023-03-29T13:50:34.992Z,14.00
2023-03-29T13:52:01.750Z,14.09
2023-03-29T13:53:35.268Z,14.17
2023-03-29T13:54:48.212Z,14.14
2023-03-29T13:55:54.053Z,14.11
2023-03-29T13:57:05.271Z,14.13
2023-03-29T13:58:18.683Z,13.98
2023-03-29T13:59:27.730Z,13.87
2023-03-29T14:00:44.709Z,13.89
2023-03-29T14:01:58.080Z,13.69
2023-03-29T14:03:02.251Z,13.50
2023-03-29T14:04:06.064Z,13.35
2023-03-29T14:05:12.903Z,13.41
2023-03-29T14:06:21.521Z,13.50
2023-03-29T14:07:26.495Z,13.63
2023-03-29T14:08:36.756Z,13.81
2023-03-29T14:09:44.140Z,13.89
2023-03-29T14:10:46.379Z,13.95
2023-03-29T14:11:48.663Z,14.10
2023-03-29T14:12:50.546Z,14.13
2023-03-29T14:14:00.489Z,14.15
2023-03-29T14:15:06.431Z,14.07
2023-03-29T14:16:11.371Z,13.90
2023-03-29T14:17:22.988Z,14.04
2023-03-29T14:18:27.501Z,13.99
2023-03-29T14:19:34.348Z,13.95
2023-03-29T14:20:37.005Z,13.90
2023-03-29T14:21:39.935Z,13.83
2023-03-29T14:22:42.632Z,13.82
2023-03-29T14:23:46.870Z,13.92
2023-03-29T14:24:53.650Z,13.97
2023-03-29T14:25:55.372Z,13.97
2023-03-29T14:26:57.082Z,13.99
2023-03-29T14:27:58.883Z,13.92
2023-03-29T14:29:02.999Z,13.95
2023-03-29T14:30:22.052Z,13.94
2023-03-29T14:31:29.929Z,13.87
2023-03-29T14:32:32.136Z,13.90
2023-03-29T14:33:34.834Z,13.92
2023-03-29T14:34:36.977Z,13.96
2023-03-29T14:35:40.480Z,14.04
2023-03-29T14:36:45.168Z,13.91
2023-03-29T14:37:48.818Z,13.80
2023-03-29T14:38:58.191Z,13.85
2023-03-29T14:40:01.176Z,13.79
2023-03-29T14:41:03.533Z,13.67